createdAt,value
2018-02-07T00:01:03.017Z,99825.47
2018-02-07T00:04:04.438Z,99824.23
2018-02-07T00:07:06.655Z,99814.66
2018-02-07T00:10:08.055Z,99821.11
2018-02-07T00:13:09.549Z,99817.16
2018-02-07T00:16:11.001Z,99798.83
2018-02-07T00:19:12.471Z,99811.88
2018-02-07T00:22:13.926Z,99815.47
2018-02-07T00:25:15.324Z,99818.98
2018-02-07T00:28:17.493Z,99810.63
2018-02-07T00:31:19.633Z,99829.81
2018-02-07T00:34:21.136Z,99824.18
2018-02-07T00:37:22.656Z,99832.05
2018-02-07T00:40:24.151Z,99833.34
2018-02-07T00:43:25.616Z,99815.47
2018-02-07T00:46:27.156Z,99840.78
2018-02-07T00:49:28.586Z,99826.81
2018-02-07T00:52:30.055Z,99831.56
2018-02-07T00:55:35.505Z,99829.47
2018-02-07T00:58:37.728Z,99832.73
2018-02-07T01:01:39.153Z,99833.67
2018-02-07T01:04:40.502Z,99831.13
2018-02-07T01:07:41.890Z,99839.33
2018-02-07T01:10:43.314Z,99837.66
2018-02-07T01:13:45.619Z,99848.11
2018-02-07T01:16:47.816Z,99843.25
2018-02-07T01:19:49.938Z,99845.36
2018-02-07T01:22:51.297Z,99834.05
2018-02-07T01:25:53.413Z,99836.69
2018-02-07T01:28:54.776Z,99842.83
2018-02-07T01:31:56.909Z,99855.89
2018-02-07T01:34:58.303Z,99853.33
2018-02-07T01:37:59.737Z,99858.09
2018-02-07T01:41:02.235Z,99848.54
2018-02-07T01:44:04.361Z,99848.96
2018-02-07T01:47:06.517Z,99858.03
2018-02-07T01:50:07.893Z,99864.66
2018-02-07T01:53:09.308Z,99861.16
2018-02-07T01:56:10.704Z,99853.73
2018-02-07T01:59:12.823Z,99850.22
2018-02-07T02:02:14.226Z,99858.53
2018-02-07T02:05:15.549Z,99854.02
2018-02-07T02:08:17.724Z,99846.25
2018-02-07T02:11:19.126Z,99843.11
2018-02-07T02:14:21.239Z,99837.78
2018-02-07T02:17:23.383Z,99838.75
2018-02-07T02:20:24.750Z,99847.91
2018-02-07T02:23:26.132Z,99831.84
2018-02-07T02:26:27.500Z,99832.16
2018-02-07T02:29:28.861Z,99839.63
2018-02-07T02:32:30.989Z,99844.52
2018-02-07T02:35:32.410Z,99845.47
2018-02-07T02:38:33.779Z,99846.34
2018-02-07T02:41:35.184Z,99837.55
2018-02-07T02:44:36.564Z,99840.69
2018-02-07T02:47:37.942Z,99846.29
2018-02-07T02:50:39.337Z,99837.98
2018-02-07T02:53:41.482Z,99846.73
2018-02-07T02:56:42.889Z,99840.66
2018-02-07T02:59:44.294Z,99838.00
2018-02-07T03:02:45.673Z,99834.92
2018-02-07T03:05:47.077Z,99837.14
2018-02-07T03:08:48.423Z,99839.31
2018-02-07T03:11:49.825Z,99830.48
2018-02-07T03:14:51.944Z,99826.22
2018-02-07T03:17:53.376Z,99835.78
2018-02-07T03:20:55.517Z,99851.95
2018-02-07T03:23:57.644Z,99851.89
2018-02-07T03:26:59.089Z,99853.64
2018-02-07T03:30:01.232Z,99843.61
2018-02-07T03:33:02.600Z,99849.70
2018-02-07T03:36:04.012Z,99843.64
2018-02-07T03:39:05.472Z,99851.98
2018-02-07T03:42:06.834Z,99852.31
2018-02-07T03:45:09.130Z,99844.95
2018-02-07T03:48:11.228Z,99856.30
2018-02-07T03:51:13.349Z,99867.67
2018-02-07T03:54:14.725Z,99866.34
2018-02-07T03:57:16.116Z,99852.84
2018-02-07T04:00:17.486Z,99857.95
2018-02-07T04:03:18.853Z,99856.55
2018-02-07T04:06:20.963Z,99868.41
2018-02-07T04:09:22.302Z,99861.06
2018-02-07T04:12:23.698Z,99853.61
2018-02-07T04:15:25.794Z,99861.51
2018-02-07T04:18:27.938Z,99857.83
2018-02-07T04:21:29.333Z,99858.84
2018-02-07T04:24:30.674Z,99856.53
2018-02-07T04:27:32.066Z,99856.87
2018-02-07T04:30:33.445Z,99861.82
2018-02-07T04:33:34.820Z,99864.01
2018-02-07T04:36:36.191Z,99861.07
2018-02-07T04:39:38.349Z,99856.20
2018-02-07T04:42:39.762Z,99864.52
2018-02-07T04:45:41.867Z,99868.43
2018-02-07T04:48:43.980Z,99871.06
2018-02-07T04:51:45.434Z,99863.70
2018-02-07T04:54:47.506Z,99867.57
2018-02-07T04:57:48.869Z,99871.55
2018-02-07T05:00:50.214Z,99870.61
2018-02-07T05:03:52.312Z,99873.14
2018-02-07T05:06:54.449Z,99873.16
2018-02-07T05:09:55.842Z,99875.32
2018-02-07T05:12:57.202Z,99876.22
2018-02-07T05:15:58.576Z,99873.55
2018-02-07T05:18:59.944Z,99872.70
2018-02-07T05:22:02.085Z,99877.52
2018-02-07T05:25:03.454Z,99876.05
2018-02-07T05:28:04.892Z,99875.61
2018-02-07T05:31:07.003Z,99876.41
2018-02-07T05:34:08.394Z,99886.48
2018-02-07T05:37:09.784Z,99883.80
2018-02-07T05:40:11.220Z,99876.05
2018-02-07T05:43:12.613Z,99879.41
2018-02-07T05:46:14.740Z,99878.98
2018-02-07T05:49:16.120Z,99881.94
2018-02-07T05:52:17.564Z,99872.83
2018-02-07T05:55:18.940Z,99890.67
2018-02-07T05:58:20.333Z,99889.00
2018-02-07T06:01:22.464Z,99889.83
2018-02-07T06:04:23.817Z,99900.20
2018-02-07T06:07:25.989Z,99895.94
2018-02-07T06:10:27.342Z,99904.38
2018-02-07T06:13:28.729Z,99903.02
2018-02-07T06:16:30.070Z,99900.13
2018-02-07T06:19:32.247Z,99905.76
2018-02-07T06:22:33.668Z,99897.00
2018-02-07T06:25:35.064Z,99908.72
2018-02-07T06:28:36.478Z,99903.97
2018-02-07T06:31:37.894Z,99917.89
2018-02-07T06:34:39.990Z,99914.48
2018-02-07T06:37:42.122Z,99905.27
2018-02-07T06:40:43.510Z,99916.20
2018-02-07T06:43:44.937Z,99917.16
2018-02-07T06:46:46.318Z,99906.21
2018-02-07T06:49:47.652Z,99919.59
2018-02-07T06:52:49.035Z,99925.14
2018-02-07T06:55:50.438Z,99913.11
2018-02-07T06:58:51.860Z,99927.14
2018-02-07T07:01:53.970Z,99934.55
2018-02-07T07:04:55.521Z,99931.95
2018-02-07T07:07:56.881Z,99930.19
2018-02-07T07:10:58.258Z,99928.44
2018-02-07T07:13:59.634Z,99933.16
2018-02-07T07:17:01.022Z,99937.81
2018-02-07T07:20:02.474Z,99936.91
2018-02-07T07:23:03.835Z,99948.57
2018-02-07T07:26:05.990Z,99962.58
2018-02-07T07:29:07.391Z,99962.33
2018-02-07T07:32:08.806Z,99970.81
2018-02-07T07:35:10.210Z,99970.74
2018-02-07T07:38:11.554Z,99973.38
2018-02-07T07:41:13.667Z,99966.58
2018-02-07T07:44:14.993Z,99966.94
2018-02-07T07:47:16.460Z,99971.84
2018-02-07T07:50:17.834Z,99953.42
2018-02-07T07:53:19.248Z,99978.31
2018-02-07T07:56:20.677Z,99963.17
2018-02-07T07:59:22.057Z,99975.36
2018-02-07T08:02:23.436Z,99973.53
2018-02-07T08:05:24.866Z,99982.94
2018-02-07T08:08:26.256Z,99986.48
2018-02-07T08:11:27.592Z,99985.93
2018-02-07T08:14:28.990Z,99994.57
2018-02-07T08:17:30.322Z,99996.02
2018-02-07T08:23:40.565Z,99997.13
2018-02-07T08:26:42.650Z,99989.33
2018-02-07T08:29:44.021Z,99999.91
2018-02-07T08:32:45.404Z,100007.48
2018-02-07T08:35:46.734Z,99994.53
2018-02-07T08:38:48.076Z,100013.95
2018-02-07T08:41:49.443Z,100002.28
2018-02-07T08:44:50.966Z,100007.13
2018-02-07T08:47:53.066Z,100008.36
2018-02-07T08:50:54.408Z,100000.97
2018-02-07T08:53:55.770Z,100009.09
2018-02-07T08:56:57.234Z,100003.47
2018-02-07T08:59:58.781Z,100012.21
2018-02-07T09:03:00.959Z,100021.59
2018-02-07T09:06:02.385Z,100024.38
2018-02-07T09:09:03.792Z,100039.66
2018-02-07T09:12:05.145Z,100029.78
2018-02-07T09:15:07.614Z,100038.41
2018-02-07T09:18:08.974Z,100046.27
2018-02-07T09:21:10.322Z,100045.78
2018-02-07T09:24:11.656Z,100059.73
2018-02-07T09:27:13.002Z,100039.58
2018-02-07T09:30:14.578Z,100051.41
2018-02-07T09:33:16.726Z,100056.86
2018-02-07T09:36:18.081Z,100066.77
2018-02-07T09:39:19.413Z,100070.81
2018-02-07T09:42:20.781Z,100076.56
2018-02-07T09:45:22.872Z,100092.41
2018-02-07T09:48:24.964Z,100092.92
2018-02-07T09:51:26.291Z,100084.61
2018-02-07T09:54:27.720Z,100086.41
2018-02-07T09:57:29.092Z,100080.79
2018-02-07T10:00:30.468Z,100075.22
2018-02-07T10:03:31.834Z,100085.77
2018-02-07T10:06:33.246Z,100086.34
2018-02-07T10:09:34.568Z,100089.40
2018-02-07T10:12:35.954Z,100091.16
2018-02-07T10:15:37.360Z,100089.80
2018-02-07T10:18:38.701Z,100081.11
2018-02-07T10:21:40.120Z,100084.25
2018-02-07T10:24:41.478Z,100095.64
2018-02-07T10:27:42.844Z,100099.66
2018-02-07T10:30:44.205Z,100091.35
2018-02-07T10:33:46.380Z,100102.67
2018-02-07T10:36:47.774Z,100103.11
2018-02-07T10:39:49.153Z,100098.76
2018-02-07T10:42:50.531Z,100102.67
2018-02-07T10:45:51.887Z,100104.84
2018-02-07T10:48:53.232Z,100107.53
2018-02-07T10:51:54.576Z,100103.17
2018-02-07T10:54:55.933Z,100097.47
2018-02-07T10:58:04.292Z,100114.05
2018-02-07T11:01:05.667Z,100107.53
2018-02-07T11:04:07.033Z,100117.31
2018-02-07T11:07:08.459Z,100121.53
2018-02-07T11:10:09.844Z,100115.56
2018-02-07T11:13:11.957Z,100117.02
2018-02-07T11:16:13.329Z,100124.48
2018-02-07T11:19:15.393Z,100125.69
2018-02-07T11:22:16.754Z,100120.58
2018-02-07T11:25:18.157Z,100125.91
2018-02-07T11:28:19.517Z,100124.59
2018-02-07T11:31:20.917Z,100126.80
2018-02-07T11:34:22.309Z,100122.90
2018-02-07T11:37:23.717Z,100132.52
2018-02-07T11:40:25.802Z,100130.42
2018-02-07T11:43:27.976Z,100125.98
2018-02-07T11:46:29.380Z,100126.48
2018-02-07T11:49:30.796Z,100122.55
2018-02-07T11:52:32.237Z,100131.73
2018-02-07T11:55:33.646Z,100123.73
2018-02-07T11:58:35.754Z,100126.97
2018-02-07T12:01:37.162Z,100116.52
2018-02-07T12:04:38.558Z,100115.23
2018-02-07T12:07:39.903Z,100119.63
2018-02-07T12:10:41.285Z,100107.36
2018-02-07T12:13:42.642Z,100094.69
2018-02-07T12:16:44.763Z,100099.48
2018-02-07T12:19:46.121Z,100100.81
2018-02-07T12:22:48.228Z,100099.47
2018-02-07T12:25:50.302Z,100104.30
2018-02-07T12:28:52.441Z,100102.99
2018-02-07T12:31:53.799Z,100102.55
2018-02-07T12:34:55.956Z,100105.61
2018-02-07T12:37:58.080Z,100096.86
2018-02-07T12:40:59.405Z,100108.23
2018-02-07T12:44:00.722Z,100106.05
2018-02-07T12:47:02.145Z,100106.06
2018-02-07T12:50:04.253Z,100118.31
2018-02-07T12:53:05.766Z,100111.75
2018-02-07T12:56:07.188Z,100110.42
2018-02-07T12:59:08.759Z,100105.17
2018-02-07T13:02:10.261Z,100108.69
2018-02-07T13:05:12.328Z,100108.70
2018-02-07T13:08:14.664Z,100107.77
2018-02-07T13:11:16.768Z,100106.49
2018-02-07T13:14:18.877Z,100114.34
2018-02-07T13:17:20.190Z,100113.03
2018-02-07T13:20:21.470Z,100106.48
2018-02-07T13:23:22.791Z,100105.63
2018-02-07T13:26:24.094Z,100110.88
2018-02-07T13:29:25.420Z,100099.08
2018-02-07T13:32:26.827Z,100114.81
2018-02-07T13:35:28.219Z,100092.50
2018-02-07T13:38:29.578Z,100107.83
2018-02-07T13:41:31.645Z,100113.36
2018-02-07T13:44:33.003Z,100126.14
2018-02-07T13:47:34.294Z,100114.81
2018-02-07T13:50:35.589Z,100113.92
2018-02-07T13:53:36.901Z,100118.72
2018-02-07T13:56:38.376Z,100121.34
2018-02-07T13:59:39.666Z,100120.92
2018-02-07T14:02:40.973Z,100127.88
2018-02-07T14:05:42.330Z,100125.70
2018-02-07T14:08:43.627Z,100126.56
2018-02-07T14:11:44.950Z,100130.08
2018-02-07T14:14:47.000Z,100118.70
2018-02-07T14:17:48.347Z,100116.94
2018-02-07T14:20:49.640Z,100130.48
2018-02-07T14:23:51.046Z,100127.45
2018-02-07T14:26:52.386Z,100130.46
2018-02-07T14:29:53.699Z,100126.98
2018-02-07T14:32:55.047Z,100126.99
2018-02-07T14:35:56.362Z,100125.66
2018-02-07T14:38:57.758Z,100127.38
2018-02-07T14:41:59.052Z,100122.14
2018-02-07T14:45:01.142Z,100123.90
2018-02-07T14:48:02.474Z,100129.09
2018-02-07T14:51:03.784Z,100127.73
2018-02-07T14:54:05.123Z,100127.83
2018-02-07T14:57:13.626Z,100123.03
2018-02-07T15:00:14.969Z,100129.58
2018-02-07T15:03:16.321Z,100139.63
2018-02-07T15:06:18.374Z,100128.70
2018-02-07T15:09:19.701Z,100124.31
2018-02-07T15:12:21.914Z,100137.31
2018-02-07T15:15:23.253Z,100141.72
2018-02-07T15:18:25.355Z,100136.03
2018-02-07T15:21:27.426Z,100140.41
2018-02-07T15:24:28.782Z,100133.30
2018-02-07T15:27:30.105Z,100147.39
2018-02-07T15:30:31.415Z,100156.11
2018-02-07T15:33:32.776Z,100159.16
2018-02-07T15:36:34.811Z,100153.94
2018-02-07T15:39:36.129Z,100153.95
2018-02-07T15:42:37.470Z,100151.71
2018-02-07T15:45:38.787Z,100149.13
2018-02-07T15:48:40.105Z,100156.98
2018-02-07T15:51:42.185Z,100150.88
2018-02-07T15:54:44.262Z,100157.37
2018-02-07T15:57:45.610Z,100153.86
2018-02-07T16:00:46.943Z,100155.14
2018-02-07T16:03:48.244Z,100150.79
2018-02-07T16:06:50.313Z,100156.94
2018-02-07T16:09:51.634Z,100155.17
2018-02-07T16:12:52.972Z,100158.91
2018-02-07T16:15:54.303Z,100164.22
2018-02-07T16:18:55.662Z,100154.63
2018-02-07T16:21:57.737Z,100155.89
2018-02-07T16:24:59.134Z,100163.64
2018-02-07T16:28:01.274Z,100164.16
2018-02-07T16:31:02.611Z,100164.58
2018-02-07T16:34:04.806Z,100166.73
2018-02-07T16:37:06.156Z,100158.47
2018-02-07T16:40:07.454Z,100165.42
2018-02-07T16:43:08.760Z,100166.66
2018-02-07T16:46:10.844Z,100174.45
2018-02-07T16:49:12.901Z,100162.20
2018-02-07T16:52:14.218Z,100172.63
2018-02-07T16:55:15.543Z,100178.76
2018-02-07T16:58:16.930Z,100176.96
2018-02-07T17:01:18.289Z,100181.53
2018-02-07T17:04:19.604Z,100178.10
2018-02-07T17:07:20.953Z,100180.17
2018-02-07T17:10:22.299Z,100186.52
2018-02-07T17:13:23.619Z,100191.20
2018-02-07T17:16:24.988Z,100184.52
2018-02-07T17:19:26.384Z,100206.35
2018-02-07T17:22:28.425Z,100197.56
2018-02-07T17:25:29.759Z,100203.69
2018-02-07T17:28:31.097Z,100208.40
2018-02-07T17:31:32.452Z,100220.23
2018-02-07T17:34:33.886Z,100229.44
2018-02-07T17:37:35.236Z,100228.47
2018-02-07T17:40:37.304Z,100229.07
2018-02-07T17:43:38.655Z,100231.69
2018-02-07T17:46:39.985Z,100228.97
2018-02-07T17:49:41.285Z,100235.55
2018-02-07T17:52:43.345Z,100239.48
2018-02-07T17:55:44.682Z,100236.41
2018-02-07T17:58:46.004Z,100241.72
2018-02-07T18:01:47.332Z,100249.63
2018-02-07T18:04:48.679Z,100260.19
2018-02-07T18:07:50.060Z,100262.52
2018-02-07T18:10:51.356Z,100266.69
2018-02-07T18:13:52.735Z,100260.73
2018-02-07T18:16:54.086Z,100267.34
2018-02-07T18:19:55.460Z,100266.05
2018-02-07T18:22:56.980Z,100269.95
2018-02-07T18:25:58.909Z,100260.59
2018-02-07T18:29:00.400Z,100272.37
2018-02-07T18:32:02.096Z,100285.81
2018-02-07T18:35:03.721Z,100290.05
2018-02-07T18:38:05.162Z,100288.76
2018-02-07T18:41:06.527Z,100290.41
2018-02-07T18:44:07.925Z,100296.86
2018-02-07T18:47:09.368Z,100303.73
2018-02-07T18:50:11.574Z,100304.15
2018-02-07T18:53:13.817Z,100299.05
2018-02-07T18:59:23.368Z,100311.23
2018-02-07T19:02:24.784Z,100314.30
2018-02-07T19:05:26.912Z,100313.68
2018-02-07T19:08:28.320Z,100314.25
2018-02-07T19:11:29.710Z,100305.56
2018-02-07T19:14:31.084Z,100312.02
2018-02-07T19:17:33.332Z,100318.59
2018-02-07T19:20:35.630Z,100312.81
2018-02-07T19:23:37.880Z,100313.55
2018-02-07T19:26:39.278Z,100328.55
2018-02-07T19:29:40.759Z,100315.67
2018-02-07T19:32:42.280Z,100323.09
2018-02-07T19:35:44.473Z,100318.11
2018-02-07T19:38:46.636Z,100328.97
2018-02-07T19:41:48.041Z,100334.61
2018-02-07T19:44:49.538Z,100340.27
2018-02-07T19:47:51.033Z,100326.58
2018-02-07T19:50:53.327Z,100332.39
2018-02-07T19:53:54.799Z,100336.81
2018-02-07T19:56:56.394Z,100339.26
2018-02-07T19:59:57.910Z,100328.64
2018-02-07T20:02:59.518Z,100338.74
2018-02-07T20:06:01.059Z,100323.77
2018-02-07T20:09:03.297Z,100335.87
2018-02-07T20:12:04.738Z,100328.48
2018-02-07T20:15:06.886Z,100332.28
2018-02-07T20:18:08.599Z,100338.45
2018-02-07T20:21:09.970Z,100338.77
2018-02-07T20:24:11.529Z,100347.55
2018-02-07T20:27:12.915Z,100352.61
2018-02-07T20:30:14.263Z,100348.77
2018-02-07T20:33:16.408Z,100345.63
2018-02-07T20:36:18.050Z,100343.05
2018-02-07T20:39:20.332Z,100350.88
2018-02-07T20:42:21.890Z,100346.92
2018-02-07T20:45:23.403Z,100339.00
2018-02-07T20:48:25.569Z,100343.20
2018-02-07T20:51:27.035Z,100345.31
2018-02-07T20:54:28.536Z,100349.73
2018-02-07T20:57:29.942Z,100349.14
2018-02-07T21:00:31.373Z,100344.20
2018-02-07T21:03:33.736Z,100348.59
2018-02-07T21:12:11.189Z,100349.44
2018-02-07T21:15:12.893Z,100357.13
2018-02-07T21:18:14.422Z,100355.19
2018-02-07T21:21:17.676Z,100357.79
2018-02-07T21:24:19.908Z,100356.42
2018-02-07T21:27:21.323Z,100353.84
2018-02-07T21:30:22.779Z,100365.08
2018-02-07T21:33:24.402Z,100360.30
2018-02-07T21:36:25.738Z,100365.16
2018-02-07T21:42:36.796Z,100370.59
2018-02-07T21:45:38.242Z,100373.51
2018-02-07T21:48:40.441Z,100367.67
2018-02-07T21:51:42.263Z,100370.59
2018-02-07T21:54:43.748Z,100367.76
2018-02-07T21:57:45.203Z,100377.32
2018-02-07T22:00:46.585Z,100384.10
2018-02-07T22:03:48.732Z,100380.41
2018-02-07T22:06:50.152Z,100374.39
2018-02-07T22:09:51.768Z,100373.63
2018-02-07T22:12:53.583Z,100375.11
2018-02-07T22:15:55.078Z,100369.02
2018-02-07T22:18:56.401Z,100351.09
2018-02-07T22:21:58.550Z,100382.20
2018-02-07T22:24:59.864Z,100385.17
2018-02-07T22:28:01.896Z,100378.50
2018-02-07T22:31:03.296Z,100381.63
2018-02-07T22:34:04.695Z,100389.89
2018-02-07T22:37:06.774Z,100386.20
2018-02-07T22:40:08.517Z,100382.86
2018-02-07T22:43:10.612Z,100375.45
2018-02-07T22:46:11.955Z,100371.66
2018-02-07T22:49:13.295Z,100378.03
2018-02-07T22:52:15.355Z,100386.22
2018-02-07T22:55:19.544Z,100384.97
2018-02-07T22:58:21.658Z,100387.56
2018-02-07T23:01:23.007Z,100406.63
2018-02-07T23:04:24.326Z,100407.43
2018-02-07T23:07:25.734Z,100402.73
2018-02-07T23:10:27.057Z,100411.67
2018-02-07T23:13:29.153Z,100413.02
2018-02-07T23:16:31.257Z,100409.27
2018-02-07T23:19:33.341Z,100408.49
2018-02-07T23:22:35.427Z,100408.69
2018-02-07T23:25:36.762Z,100404.20
2018-02-07T23:28:38.136Z,100407.35
2018-02-07T23:31:39.510Z,100397.45
2018-02-07T23:34:40.888Z,100407.38
2018-02-07T23:37:42.216Z,100408.36
2018-02-07T23:40:43.544Z,100407.70
2018-02-07T23:43:44.907Z,100394.16
2018-02-07T23:46:46.967Z,100401.42
2018-02-07T23:49:48.297Z,100412.23
2018-02-07T23:52:50.383Z,100399.73
2018-02-07T23:55:51.745Z,100407.27
2018-02-07T23:58:53.047Z,100400.03
